< < Back
Terminal Aerodrome Forecast


Current Version              Previous Versions:   1  2  3  4  5  6  7  8  9  

Terminal Aerodrome Forecast

829
FTUS42 KMLB 300531
TAFDAB
TAF
KDAB 300531Z 3006/3106 06005KT P6SM SCT030
     FM301200 07003KT P6SM VCSH SCT035
      TEMPO 3012/3015 -SHRA BKN035
     FM301500 08006KT P6SM VCSH SCT035
     FM301800 08010KT P6SM SCT035
     FM310100 09005KT P6SM SCT035 SCT060 BKN250=



Latest METAR

714
SAUS80 KWBC 301600 RRA
MTRDAB
METAR KDAB 301553Z 07010KT 10SM SCT028CB SCT038 SCT070 28/21 A3011 RMK
AO2 SLP196 CB N MOV W TCU S-W DSNT NE-SE VCSH N T02830211


USA.gov is the U.S. government's official web portal to all federal, state and local government web resources and services.